Time,TemperatureF,DewpointF,PressureIn,WindDirection,WindDirectionDegrees,WindSpeedMPH,WindSpeedGustMPH,Humidity,HourlyPrecipIn,Conditions,Clouds,dailyrainin,SolarRadiationWatts/m^2,SoftwareType,DateUTC
2013-03-13 00:00:00,41.0,29.0,29.95,West,266,2.0,2.0,62,0.00,,,0.00,0,Wunderground v.1.15,2013-03-13 04:00:00,
2013-03-13 00:10:00,41.0,29.0,29.96,WSW,257,2.0,6.0,62,0.00,,,0.00,0,Wunderground v.1.15,2013-03-13 04:10:00,
2013-03-13 00:20:00,41.0,29.0,29.95,WNW,290,3.0,3.0,62,0.00,,,0.00,0,Wunderground v.1.15,2013-03-13 04:20:00,
2013-03-13 00:30:00,40.9,28.5,29.95,WSW,250,3.0,5.0,61,0.00,,,0.00,0,Wunderground v.1.15,2013-03-13 04:30:00,
2013-03-13 00:40:00,41.0,29.7,29.95,WSW,257,4.0,6.0,64,0.00,,,0.00,0,Wunderground v.1.15,2013-03-13 04:40:00,
2013-03-13 00:50:00,40.9,28.1,29.95,West,273,3.0,3.0,60,0.00,,,0.00,0,Wunderground v.1.15,2013-03-13 04:50:00,
2013-03-13 01:00:00,40.8,28.0,29.95,NW,304,2.0,2.0,60,0.00,,,0.00,0,Wunderground v.1.15,2013-03-13 05:00:00,
2013-03-13 01:10:00,41.0,28.2,29.95,West,270,4.0,4.0,60,0.00,,,0.00,0,Wunderground v.1.15,2013-03-13 05:10:00,
2013-03-13 01:20:00,41.1,28.3,29.94,West,267,4.0,4.0,60,0.00,,,0.00,0,Wunderground v.1.15,2013-03-13 05:20:00,
2013-03-13 01:30:00,40.8,28.4,29.95,WSW,254,2.0,4.0,61,0.00,,,0.00,0,Wunderground v.1.15,2013-03-13 05:30:00,
2013-03-13 01:40:00,40.5,28.1,29.94,West,268,2.0,2.0,61,0.00,,,0.00,0,Wunderground v.1.15,2013-03-13 05:40:00,
2013-03-13 01:50:00,40.4,28.0,29.94,WNW,302,2.0,2.0,61,0.00,,,0.00,0,Wunderground v.1.15,2013-03-13 05:50:00,
2013-03-13 02:00:00,40.2,27.8,29.94,WNW,302,1.0,3.0,61,0.00,,,0.00,0,Wunderground v.1.15,2013-03-13 06:00:00,
2013-03-13 02:10:00,40.3,27.5,29.94,West,263,1.0,4.0,60,0.00,,,0.00,0,Wunderground v.1.15,2013-03-13 06:10:00,
2013-03-13 02:20:00,40.4,27.2,29.94,WSW,251,3.0,3.0,59,0.00,,,0.00,0,Wunderground v.1.15,2013-03-13 06:20:00,
2013-03-13 02:30:00,40.4,26.8,29.94,West,259,4.0,4.0,58,0.00,,,0.00,0,Wunderground v.1.15,2013-03-13 06:30:00,
2013-03-13 02:40:00,40.2,27.0,29.93,West,263,3.0,3.0,59,0.00,,,0.00,0,Wunderground v.1.15,2013-03-13 06:40:00,
2013-03-13 02:50:00,39.6,26.4,29.93,West,261,1.0,4.0,59,0.00,,,0.00,0,Wunderground v.1.15,2013-03-13 06:50:00,
2013-03-13 03:00:00,39.4,26.2,29.93,WSW,258,2.0,2.0,59,0.00,,,0.00,0,Wunderground v.1.15,2013-03-13 07:00:00,
2013-03-13 03:10:00,38.8,26.1,29.93,WSW,258,0.0,0.0,60,0.00,,,0.00,0,Wunderground v.1.15,2013-03-13 07:10:00,
2013-03-13 03:20:00,38.3,26.0,29.93,WSW,258,1.0,1.0,61,0.00,,,0.00,0,Wunderground v.1.15,2013-03-13 07:20:00,
2013-03-13 03:30:00,37.5,26.0,29.93,WSW,258,0.0,0.0,63,0.00,,,0.00,0,Wunderground v.1.15,2013-03-13 07:30:00,
2013-03-13 03:40:00,37.0,25.9,29.92,WSW,258,0.0,0.0,64,0.00,,,0.00,0,Wunderground v.1.15,2013-03-13 07:40:00,
2013-03-13 03:50:00,37.0,25.9,29.92,WSW,258,0.0,0.0,64,0.00,,,0.00,0,Wunderground v.1.15,2013-03-13 07:50:00,
2013-03-13 04:00:00,36.8,25.4,29.92,WSW,258,0.0,0.0,63,0.00,,,0.00,0,Wunderground v.1.15,2013-03-13 08:00:00,
2013-03-13 04:10:00,35.7,25.1,29.92,WSW,258,0.0,0.0,65,0.00,,,0.00,0,Wunderground v.1.15,2013-03-13 08:10:00,
2013-03-13 04:20:00,34.7,24.9,29.92,WSW,258,0.0,0.0,67,0.00,,,0.00,0,Wunderground v.1.15,2013-03-13 08:20:00,
2013-03-13 04:30:00,34.7,24.9,29.91,WSW,258,0.0,0.0,67,0.00,,,0.00,0,Wunderground v.1.15,2013-03-13 08:30:00,
2013-03-13 04:40:00,34.0,25.2,29.91,WSW,258,0.0,0.0,70,0.00,,,0.00,0,Wunderground v.1.15,2013-03-13 08:40:00,
2013-03-13 04:50:00,33.4,24.7,29.90,WSW,258,0.0,0.0,70,0.00,,,0.00,0,Wunderground v.1.15,2013-03-13 08:50:00,
2013-03-13 05:00:00,32.0,25.0,29.91,WSW,258,0.0,0.0,75,0.00,,,0.00,0,Wunderground v.1.15,2013-03-13 09:00:00,
2013-03-13 05:10:00,31.5,25.1,29.92,WSW,258,0.0,0.0,77,0.00,,,0.00,0,Wunderground v.1.15,2013-03-13 09:10:00,
2013-03-13 05:20:00,31.7,25.0,29.91,WSW,258,0.0,0.0,76,0.00,,,0.00,0,Wunderground v.1.15,2013-03-13 09:20:00,
2013-03-13 05:30:00,31.8,25.1,29.91,WSW,258,0.0,0.0,76,0.00,,,0.00,0,Wunderground v.1.15,2013-03-13 09:30:00,
2013-03-13 05:40:00,31.7,25.0,29.92,WSW,258,0.0,0.0,76,0.00,,,0.00,0,Wunderground v.1.15,2013-03-13 09:40:00,
2013-03-13 05:50:00,31.6,24.6,29.92,WSW,258,0.0,0.0,75,0.00,,,0.00,0,Wunderground v.1.15,2013-03-13 09:50:00,
2013-03-13 06:00:00,31.4,24.4,29.92,WSW,258,0.0,0.0,75,0.00,,,0.00,0,Wunderground v.1.15,2013-03-13 10:00:00,
2013-03-13 06:10:00,31.4,24.7,29.92,WSW,258,0.0,0.0,76,0.00,,,0.00,0,Wunderground v.1.15,2013-03-13 10:10:00,
2013-03-13 06:20:00,31.2,24.5,29.92,WSW,258,0.0,0.0,76,0.00,,,0.00,0,Wunderground v.1.15,2013-03-13 10:20:00,
2013-03-13 06:30:00,31.1,24.4,29.93,WSW,258,0.0,0.0,76,0.00,,,0.00,0,Wunderground v.1.15,2013-03-13 10:30:00,
2013-03-13 06:40:00,30.9,24.5,29.93,WSW,258,0.0,0.0,77,0.00,,,0.00,0,Wunderground v.1.15,2013-03-13 10:40:00,
2013-03-13 06:50:00,30.7,24.3,29.93,WSW,258,0.0,0.0,77,0.00,,,0.00,0,Wunderground v.1.15,2013-03-13 10:50:00,
2013-03-13 07:00:00,30.4,24.1,29.93,WSW,258,0.0,0.0,77,0.00,,,0.00,0,Wunderground v.1.15,2013-03-13 11:00:00,
2013-03-13 07:10:00,30.3,24.0,29.93,WSW,258,0.0,0.0,77,0.00,,,0.00,0,Wunderground v.1.15,2013-03-13 11:10:00,
2013-03-13 07:20:00,30.2,24.2,29.93,WSW,258,0.0,0.0,78,0.00,,,0.00,0,Wunderground v.1.15,2013-03-13 11:20:00,
2013-03-13 07:30:00,30.2,24.2,29.94,WSW,258,0.0,0.0,78,0.00,,,0.00,5,Wunderground v.1.15,2013-03-13 11:30:00,
2013-03-13 07:40:00,30.6,25.2,29.93,WSW,258,0.0,0.0,80,0.00,,,0.00,11,Wunderground v.1.15,2013-03-13 11:40:00,
2013-03-13 07:50:00,31.1,25.7,29.93,WSW,258,0.0,0.0,80,0.00,,,0.00,16,Wunderground v.1.15,2013-03-13 11:50:00,
2013-03-13 08:00:00,31.5,26.0,29.93,WSW,258,0.0,0.0,80,0.00,,,0.00,19,Wunderground v.1.15,2013-03-13 12:00:00,
2013-03-13 08:10:00,31.8,26.0,29.93,WSW,258,0.0,0.0,79,0.00,,,0.00,30,Wunderground v.1.15,2013-03-13 12:10:00,
2013-03-13 08:20:00,33.2,27.1,29.94,WSW,258,0.0,0.0,78,0.00,,,0.00,100,Wunderground v.1.15,2013-03-13 12:20:00,
2013-03-13 08:30:00,35.7,28.2,29.94,WSW,258,0.0,0.0,74,0.00,,,0.00,135,Wunderground v.1.15,2013-03-13 12:30:00,
2013-03-13 08:40:00,37.3,28.8,29.94,SW,225,1.0,2.0,71,0.00,,,0.00,171,Wunderground v.1.15,2013-03-13 12:40:00,
2013-03-13 08:50:00,38.8,28.4,29.94,SW,227,2.0,2.0,66,0.00,,,0.00,209,Wunderground v.1.15,2013-03-13 12:50:00,
2013-03-13 09:00:00,39.7,29.3,29.94,SW,226,2.0,2.0,66,0.00,,,0.00,243,Wunderground v.1.15,2013-03-13 13:00:00,
2013-03-13 09:10:00,40.6,30.1,29.94,SW,215,1.0,1.0,66,0.00,,,0.00,274,Wunderground v.1.15,2013-03-13 13:10:00,
2013-03-13 09:20:00,41.5,31.0,29.93,SW,225,1.0,1.0,66,0.00,,,0.00,311,Wunderground v.1.15,2013-03-13 13:20:00,
2013-03-13 09:30:00,41.9,31.0,29.93,WSW,242,1.0,4.0,65,0.00,,,0.00,341,Wunderground v.1.15,2013-03-13 13:30:00,
2013-03-13 09:40:00,41.9,31.0,29.93,SW,214,2.0,4.0,65,0.00,,,0.00,376,Wunderground v.1.15,2013-03-13 13:40:00,
2013-03-13 09:50:00,42.8,31.8,29.93,SW,232,2.0,3.0,65,0.00,,,0.00,408,Wunderground v.1.15,2013-03-13 13:50:00,
2013-03-13 10:00:00,43.6,31.8,29.93,WSW,254,3.0,3.0,63,0.00,,,0.00,441,Wunderground v.1.15,2013-03-13 14:00:00,
2013-03-13 10:10:00,43.7,31.5,29.93,West,262,4.0,4.0,62,0.00,,,0.00,522,Wunderground v.1.15,2013-03-13 14:10:00,
2013-03-13 10:20:00,44.2,31.2,29.93,WSW,244,5.0,5.0,60,0.00,,,0.00,587,Wunderground v.1.15,2013-03-13 14:20:00,
2013-03-13 10:30:00,44.0,30.6,29.93,West,274,7.0,7.0,59,0.00,,,0.00,197,Wunderground v.1.15,2013-03-13 14:30:00,
2013-03-13 10:40:00,43.8,30.0,29.92,West,260,5.0,9.0,58,0.00,,,0.00,216,Wunderground v.1.15,2013-03-13 14:40:00,
2013-03-13 10:50:00,44.8,30.5,29.92,WSW,251,5.0,5.0,57,0.00,,,0.00,721,Wunderground v.1.15,2013-03-13 14:50:00,
2013-03-13 11:00:00,46.3,28.7,29.92,WSW,248,7.0,12.0,50,0.00,,,0.00,705,Wunderground v.1.15,2013-03-13 15:00:00,
2013-03-13 11:10:00,44.9,27.8,29.92,WSW,251,9.0,15.0,51,0.00,,,0.00,199,Wunderground v.1.15,2013-03-13 15:10:00,
2013-03-13 11:20:00,45.7,29.1,29.92,WSW,252,9.0,9.0,52,0.00,,,0.00,422,Wunderground v.1.15,2013-03-13 15:20:00,
2013-03-13 11:30:00,45.2,28.6,29.93,WSW,248,9.0,10.0,52,0.00,,,0.00,320,Wunderground v.1.15,2013-03-13 15:30:00,
2013-03-13 11:40:00,44.8,28.2,29.93,West,277,9.0,9.0,52,0.00,,,0.00,454,Wunderground v.1.15,2013-03-13 15:40:00,
2013-03-13 11:50:00,43.6,27.1,29.93,West,265,10.0,10.0,52,0.00,,,0.00,693,Wunderground v.1.15,2013-03-13 15:50:00,
2013-03-13 12:00:00,44.2,25.7,29.93,WSW,252,12.0,12.0,48,0.00,,,0.00,534,Wunderground v.1.15,2013-03-13 16:00:00,
2013-03-13 12:10:00,45.8,26.7,29.92,West,275,8.0,8.0,47,0.00,,,0.00,738,Wunderground v.1.15,2013-03-13 16:10:00,
2013-03-13 12:20:00,46.6,24.7,29.91,West,272,6.0,7.0,42,0.00,,,0.00,754,Wunderground v.1.15,2013-03-13 16:20:00,
2013-03-13 12:30:00,46.7,23.0,29.91,West,278,9.0,9.0,39,0.00,,,0.00,803,Wunderground v.1.15,2013-03-13 16:30:00,
2013-03-13 12:40:00,48.1,25.5,29.91,WNW,302,8.0,9.0,41,0.00,,,0.00,870,Wunderground v.1.15,2013-03-13 16:40:00,
2013-03-13 12:50:00,47.9,23.5,29.91,WNW,283,10.0,11.0,38,0.00,,,0.00,868,Wunderground v.1.15,2013-03-13 16:50:00,
2013-03-13 13:00:00,47.9,24.7,29.92,West,271,11.0,11.0,40,0.00,,,0.00,835,Wunderground v.1.15,2013-03-13 17:00:00,
2013-03-13 13:10:00,47.4,23.7,29.92,WSW,248,8.0,9.0,39,0.00,,,0.00,323,Wunderground v.1.15,2013-03-13 17:10:00,
2013-03-13 13:20:00,46.0,21.8,29.91,WNW,284,5.0,7.0,38,0.00,,,0.00,332,Wunderground v.1.15,2013-03-13 17:20:00,
2013-03-13 13:30:00,46.1,22.5,29.91,SW,223,6.0,6.0,39,0.00,,,0.00,380,Wunderground v.1.15,2013-03-13 17:30:00,
2013-03-13 13:40:00,47.3,23.6,29.91,West,267,8.0,11.0,39,0.00,,,0.00,339,Wunderground v.1.15,2013-03-13 17:40:00,
2013-03-13 13:50:00,46.5,21.6,29.91,WSW,255,9.0,9.0,37,0.00,,,0.00,343,Wunderground v.1.15,2013-03-13 17:50:00,
2013-03-13 14:00:00,46.2,22.6,29.90,West,263,8.0,8.0,39,0.00,,,0.00,345,Wunderground v.1.15,2013-03-13 18:00:00,
2013-03-13 14:10:00,46.1,22.5,29.91,West,264,8.0,8.0,39,0.00,,,0.00,285,Wunderground v.1.15,2013-03-13 18:10:00,
2013-03-13 14:20:00,46.0,24.2,29.90,NW,321,4.0,4.0,42,0.00,,,0.00,269,Wunderground v.1.15,2013-03-13 18:20:00,
2013-03-13 14:30:00,45.4,24.2,29.90,West,279,3.0,3.0,43,0.00,,,0.00,179,Wunderground v.1.15,2013-03-13 18:30:00,
2013-03-13 14:40:00,45.3,23.5,29.90,WNW,287,3.0,3.0,42,0.00,,,0.00,299,Wunderground v.1.15,2013-03-13 18:40:00,
2013-03-13 14:50:00,45.6,23.8,29.90,WSW,253,6.0,10.0,42,0.00,,,0.00,276,Wunderground v.1.15,2013-03-13 18:50:00,
2013-03-13 15:00:00,46.1,26.4,29.89,SW,225,9.0,9.0,46,0.00,,,0.00,789,Wunderground v.1.15,2013-03-13 19:00:00,
2013-03-13 15:10:00,46.9,26.1,29.89,WSW,242,9.0,9.0,44,0.00,,,0.00,682,Wunderground v.1.15,2013-03-13 19:10:00,
2013-03-13 15:20:00,47.3,26.5,29.89,WSW,257,8.0,8.0,44,0.00,,,0.00,814,Wunderground v.1.15,2013-03-13 19:20:00,
2013-03-13 15:30:00,46.3,25.6,29.90,WSW,241,9.0,9.0,44,0.00,,,0.00,204,Wunderground v.1.15,2013-03-13 19:30:00,
2013-03-13 15:40:00,45.8,26.2,29.90,WSW,250,10.0,11.0,46,0.00,,,0.00,220,Wunderground v.1.15,2013-03-13 19:40:00,
2013-03-13 15:50:00,46.7,26.5,29.90,West,265,9.0,9.0,45,0.00,,,0.00,656,Wunderground v.1.15,2013-03-13 19:50:00,
2013-03-13 16:00:00,47.3,25.9,29.90,SW,236,8.0,10.0,43,0.00,,,0.00,592,Wunderground v.1.15,2013-03-13 20:00:00,
2013-03-13 16:10:00,46.9,27.2,29.90,WSW,243,9.0,11.0,46,0.00,,,0.00,457,Wunderground v.1.15,2013-03-13 20:10:00,
2013-03-13 16:20:00,47.2,28.0,29.90,SW,217,11.0,11.0,47,0.00,,,0.00,636,Wunderground v.1.15,2013-03-13 20:20:00,
2013-03-13 16:30:00,45.0,29.8,29.92,NW,304,8.0,11.0,55,0.00,,,0.00,638,Wunderground v.1.15,2013-03-13 20:30:00,
2013-03-13 16:40:00,41.1,30.6,29.92,WNW,286,7.0,7.0,66,0.00,,,0.00,79,Wunderground v.1.15,2013-03-13 20:40:00,
2013-03-13 16:50:00,41.3,31.5,29.92,WSW,256,4.0,5.0,68,0.00,,,0.00,454,Wunderground v.1.15,2013-03-13 20:50:00,
2013-03-13 17:00:00,40.8,29.6,29.93,WNW,293,7.0,7.0,64,0.00,,,0.00,74,Wunderground v.1.15,2013-03-13 21:00:00,
2013-03-13 17:10:00,39.3,30.3,29.95,WSW,258,9.0,12.0,70,0.00,,,0.00,25,Wunderground v.1.15,2013-03-13 21:10:00,
2013-03-13 17:20:00,38.1,31.5,29.94,WSW,254,6.0,6.0,77,0.00,,,0.00,483,Wunderground v.1.15,2013-03-13 21:20:00,
2013-03-13 17:30:00,39.6,31.7,29.94,WSW,249,3.0,5.0,73,0.00,,,0.00,243,Wunderground v.1.15,2013-03-13 21:30:00,
2013-03-13 17:40:00,40.7,32.4,29.94,SW,228,4.0,4.0,72,0.00,,,0.00,269,Wunderground v.1.15,2013-03-13 21:40:00,
2013-03-13 17:50:00,41.5,31.7,29.94,SW,225,5.0,6.0,68,0.00,,,0.00,264,Wunderground v.1.15,2013-03-13 21:50:00,
2013-03-13 18:00:00,41.5,30.2,29.94,SW,234,4.0,5.0,64,0.00,,,0.00,178,Wunderground v.1.15,2013-03-13 22:00:00,
2013-03-13 18:10:00,41.7,28.0,29.95,WSW,252,7.0,10.0,58,0.00,,,0.00,62,Wunderground v.1.15,2013-03-13 22:10:00,
2013-03-13 18:20:00,40.9,26.8,29.95,NNW,329,6.0,6.0,57,0.00,,,0.00,42,Wunderground v.1.15,2013-03-13 22:20:00,
2013-03-13 18:30:00,40.2,25.3,29.96,West,264,10.0,11.0,55,0.00,,,0.00,33,Wunderground v.1.15,2013-03-13 22:30:00,
2013-03-13 18:40:00,39.9,25.0,29.97,West,262,8.0,8.0,55,0.00,,,0.00,72,Wunderground v.1.15,2013-03-13 22:40:00,
2013-03-13 18:50:00,39.8,24.5,29.98,WNW,296,5.0,5.0,54,0.00,,,0.00,12,Wunderground v.1.15,2013-03-13 22:50:00,
2013-03-13 19:00:00,39.7,22.1,29.99,WSW,248,10.0,12.0,49,0.00,,,0.00,11,Wunderground v.1.15,2013-03-13 23:00:00,
2013-03-13 19:10:00,39.2,21.6,29.99,WSW,251,6.0,6.0,49,0.00,,,0.00,5,Wunderground v.1.15,2013-03-13 23:10:00,
2013-03-13 19:20:00,38.6,21.5,30.00,WSW,253,5.0,5.0,50,0.00,,,0.00,0,Wunderground v.1.15,2013-03-13 23:20:00,
2013-03-13 19:30:00,38.2,21.6,30.00,WSW,246,8.0,8.0,51,0.00,,,0.00,0,Wunderground v.1.15,2013-03-13 23:30:00,
2013-03-13 19:40:00,37.7,22.1,30.00,West,277,7.0,7.0,53,0.00,,,0.00,0,Wunderground v.1.15,2013-03-13 23:40:00,
2013-03-13 19:50:00,37.3,21.7,30.01,West,267,5.0,5.0,53,0.00,,,0.00,0,Wunderground v.1.15,2013-03-13 23:50:00,
2013-03-13 20:00:00,37.0,21.9,30.01,WNW,290,7.0,7.0,54,0.00,,,0.00,0,Wunderground v.1.15,2013-03-14 00:00:00,
2013-03-13 20:10:00,36.6,21.5,30.01,WSW,252,4.0,6.0,54,0.00,,,0.00,0,Wunderground v.1.15,2013-03-14 00:10:00,
2013-03-13 20:20:00,36.4,20.9,30.02,West,275,6.0,6.0,53,0.00,,,0.00,0,Wunderground v.1.15,2013-03-14 00:20:00,
2013-03-13 20:30:00,36.2,21.1,30.02,NW,323,6.0,6.0,54,0.00,,,0.00,0,Wunderground v.1.15,2013-03-14 00:30:00,
2013-03-13 20:40:00,35.9,21.3,30.03,WSW,252,6.0,14.0,55,0.00,,,0.00,0,Wunderground v.1.15,2013-03-14 00:40:00,
2013-03-13 20:50:00,35.9,21.7,30.03,West,261,6.0,6.0,56,0.00,,,0.00,0,Wunderground v.1.15,2013-03-14 00:50:00,
2013-03-13 21:00:00,35.8,22.0,30.03,WSW,252,4.0,4.0,57,0.00,,,0.00,0,Wunderground v.1.15,2013-03-14 01:00:00,
2013-03-13 21:10:00,35.5,23.0,30.03,WSW,257,4.0,8.0,60,0.00,,,0.00,0,Wunderground v.1.15,2013-03-14 01:10:00,
2013-03-13 21:20:00,35.0,22.5,30.04,WNW,288,5.0,6.0,60,0.00,,,0.00,0,Wunderground v.1.15,2013-03-14 01:20:00,
2013-03-13 21:30:00,34.4,21.9,30.04,WSW,250,4.0,5.0,60,0.00,,,0.00,0,Wunderground v.1.15,2013-03-14 01:30:00,
2013-03-13 21:40:00,34.4,22.3,30.04,West,268,4.0,5.0,61,0.00,,,0.00,0,Wunderground v.1.15,2013-03-14 01:40:00,
2013-03-13 21:50:00,34.4,22.3,30.04,West,275,5.0,5.0,61,0.00,,,0.00,0,Wunderground v.1.15,2013-03-14 01:50:00,
2013-03-13 22:00:00,34.4,22.3,30.05,WNW,297,3.0,6.0,61,0.00,,,0.00,0,Wunderground v.1.15,2013-03-14 02:00:00,
2013-03-13 22:10:00,34.4,22.3,30.05,WNW,288,4.0,4.0,61,0.00,,,0.00,0,Wunderground v.1.15,2013-03-14 02:10:00,
2013-03-13 22:20:00,34.4,22.3,30.05,WNW,287,4.0,4.0,61,0.00,,,0.00,0,Wunderground v.1.15,2013-03-14 02:20:00,
2013-03-13 22:30:00,34.2,22.5,30.06,West,261,2.0,10.0,62,0.00,,,0.00,0,Wunderground v.1.15,2013-03-14 02:30:00,
2013-03-13 22:40:00,33.9,22.2,30.06,West,281,3.0,3.0,62,0.00,,,0.00,0,Wunderground v.1.15,2013-03-14 02:40:00,
2013-03-13 22:50:00,33.4,22.1,30.05,WNW,283,2.0,2.0,63,0.00,,,0.00,0,Wunderground v.1.15,2013-03-14 02:50:00,
2013-03-13 23:00:00,33.4,21.8,30.06,WNW,292,2.0,6.0,62,0.00,,,0.00,0,Wunderground v.1.15,2013-03-14 03:00:00,
2013-03-13 23:10:00,33.5,21.1,30.06,West,261,3.0,3.0,60,0.00,,,0.00,0,Wunderground v.1.15,2013-03-14 03:10:00,
2013-03-13 23:20:00,33.6,20.8,30.06,SW,232,5.0,5.0,59,0.00,,,0.00,0,Wunderground v.1.15,2013-03-14 03:20:00,
2013-03-13 23:30:00,33.6,20.4,30.06,West,273,4.0,5.0,58,0.00,,,0.00,0,Wunderground v.1.15,2013-03-14 03:30:00,
2013-03-13 23:40:00,33.5,19.9,30.06,WNW,297,3.0,3.0,57,0.00,,,0.00,0,Wunderground v.1.15,2013-03-14 03:40:00,
2013-03-13 23:50:00,33.4,20.2,30.06,West,277,1.0,5.0,58,0.00,,,0.00,0,Wunderground v.1.15,2013-03-14 03:50:00,